sensor_id;sensor_type;location;lat;lon;timestamp;pressure;altitude;pressure_sealevel;temperature;humidity
64967;BME280;51710;38.732;-121.358;2024-03-02T00:00:29;100320.31;;;14.54;73.56
64967;BME280;51710;38.732;-121.358;2024-03-02T00:02:56;100313.06;;;14.48;73.81
64967;BME280;51710;38.732;-121.358;2024-03-02T00:05:22;100313.94;;;14.34;74.78
64967;BME280;51710;38.732;-121.358;2024-03-02T00:07:58;100308.34;;;14.29;75.77
64967;BME280;51710;38.732;-121.358;2024-03-02T00:10:47;100299.91;;;14.32;76.00
64967;BME280;51710;38.732;-121.358;2024-03-02T00:13:13;100305.72;;;14.35;76.71
64967;BME280;51710;38.732;-121.358;2024-03-02T00:18:11;100286.56;;;14.38;76.04
64967;BME280;51710;38.732;-121.358;2024-03-02T00:20:39;100299.78;;;14.40;76.54
64967;BME280;51710;38.732;-121.358;2024-03-02T00:23:07;100291.16;;;14.44;76.68
64967;BME280;51710;38.732;-121.358;2024-03-02T00:26:00;100296.56;;;14.51;76.48
64967;BME280;51710;38.732;-121.358;2024-03-02T00:28:36;100284.47;;;14.55;75.75
64967;BME280;51710;38.732;-121.358;2024-03-02T00:31:08;100295.38;;;14.53;75.08
64967;BME280;51710;38.732;-121.358;2024-03-02T00:33:44;100291.63;;;14.48;74.28
64967;BME280;51710;38.732;-121.358;2024-03-02T00:36:16;100275.50;;;14.41;74.03
64967;BME280;51710;38.732;-121.358;2024-03-02T00:38:54;100275.03;;;14.38;74.25
64967;BME280;51710;38.732;-121.358;2024-03-02T00:41:26;100284.88;;;14.31;73.76
64967;BME280;51710;38.732;-121.358;2024-03-02T00:44:00;100271.22;;;14.26;73.81
64967;BME280;51710;38.732;-121.358;2024-03-02T00:46:34;100271.94;;;14.20;72.77
64967;BME280;51710;38.732;-121.358;2024-03-02T00:49:11;100277.69;;;14.17;72.32
64967;BME280;51710;38.732;-121.358;2024-03-02T00:51:39;100272.72;;;14.14;72.18
64967;BME280;51710;38.732;-121.358;2024-03-02T00:54:07;100283.78;;;14.11;71.40
64967;BME280;51710;38.732;-121.358;2024-03-02T00:56:34;100272.00;;;14.05;71.89
64967;BME280;51710;38.732;-121.358;2024-03-02T00:59:01;100291.31;;;14.01;72.99
64967;BME280;51710;38.732;-121.358;2024-03-02T01:01:27;100282.59;;;13.92;73.70
64967;BME280;51710;38.732;-121.358;2024-03-02T01:03:54;100285.47;;;13.76;74.32
64967;BME280;51710;38.732;-121.358;2024-03-02T01:06:20;100284.63;;;13.54;74.83
64967;BME280;51710;38.732;-121.358;2024-03-02T01:08:48;100282.59;;;13.42;75.79
64967;BME280;51710;38.732;-121.358;2024-03-02T01:11:17;100279.19;;;13.33;76.43
64967;BME280;51710;38.732;-121.358;2024-03-02T01:13:44;100259.38;;;13.28;77.00
64967;BME280;51710;38.732;-121.358;2024-03-02T01:16:12;100279.66;;;13.22;77.29
64967;BME280;51710;38.732;-121.358;2024-03-02T01:18:38;100278.63;;;13.23;77.48
64967;BME280;51710;38.732;-121.358;2024-03-02T01:21:04;100266.28;;;13.22;77.94
64967;BME280;51710;38.732;-121.358;2024-03-02T01:23:31;100273.66;;;13.20;78.07
64967;BME280;51710;38.732;-121.358;2024-03-02T01:25:57;100267.66;;;13.18;77.88
64967;BME280;51710;38.732;-121.358;2024-03-02T01:28:23;100261.31;;;13.19;77.64
64967;BME280;51710;38.732;-121.358;2024-03-02T01:30:50;100247.94;;;13.19;77.69
64967;BME280;51710;38.732;-121.358;2024-03-02T01:33:17;100237.44;;;13.18;77.63
64967;BME280;51710;38.732;-121.358;2024-03-02T01:35:44;100254.28;;;13.18;77.64
64967;BME280;51710;38.732;-121.358;2024-03-02T01:38:10;100262.69;;;13.15;77.53
64967;BME280;51710;38.732;-121.358;2024-03-02T01:40:37;100279.66;;;13.08;78.20
64967;BME280;51710;38.732;-121.358;2024-03-02T01:43:07;100253.91;;;12.92;78.64
64967;BME280;51710;38.732;-121.358;2024-03-02T01:45:34;100273.41;;;12.78;79.26
64967;BME280;51710;38.732;-121.358;2024-03-02T01:48:01;100264.47;;;12.71;80.13
64967;BME280;51710;38.732;-121.358;2024-03-02T01:50:29;100254.72;;;12.64;80.62
64967;BME280;51710;38.732;-121.358;2024-03-02T01:52:57;100245.97;;;12.55;80.83
64967;BME280;51710;38.732;-121.358;2024-03-02T01:55:24;100259.84;;;12.51;81.13
64967;BME280;51710;38.732;-121.358;2024-03-02T01:57:51;100271.06;;;12.46;81.92
64967;BME280;51710;38.732;-121.358;2024-03-02T02:00:19;100255.56;;;12.41;81.67
64967;BME280;51710;38.732;-121.358;2024-03-02T02:02:47;100263.78;;;12.40;82.13
64967;BME280;51710;38.732;-121.358;2024-03-02T02:05:14;100291.84;;;12.36;82.56
64967;BME280;51710;38.732;-121.358;2024-03-02T02:07:41;100295.59;;;12.27;83.09
64967;BME280;51710;38.732;-121.358;2024-03-02T02:10:10;100297.84;;;12.15;83.77
64967;BME280;51710;38.732;-121.358;2024-03-02T02:12:37;100276.72;;;12.06;84.87
64967;BME280;51710;38.732;-121.358;2024-03-02T02:15:21;100286.19;;;11.86;85.83
64967;BME280;51710;38.732;-121.358;2024-03-02T02:17:47;100277.75;;;11.74;86.08
64967;BME280;51710;38.732;-121.358;2024-03-02T02:20:14;100275.97;;;11.67;86.48
64967;BME280;51710;38.732;-121.358;2024-03-02T02:22:40;100276.66;;;11.61;86.86
64967;BME280;51710;38.732;-121.358;2024-03-02T02:25:06;100276.72;;;11.45;86.70
64967;BME280;51710;38.732;-121.358;2024-03-02T02:27:33;100285.44;;;11.30;87.70
64967;BME280;51710;38.732;-121.358;2024-03-02T02:29:59;100268.84;;;11.20;88.48
64967;BME280;51710;38.732;-121.358;2024-03-02T02:32:26;100242.53;;;11.17;88.96
64967;BME280;51710;38.732;-121.358;2024-03-02T02:34:53;100268.03;;;11.12;89.15
64967;BME280;51710;38.732;-121.358;2024-03-02T02:37:19;100262.72;;;11.12;89.61
64967;BME280;51710;38.732;-121.358;2024-03-02T02:39:45;100262.53;;;11.13;89.61
64967;BME280;51710;38.732;-121.358;2024-03-02T02:42:12;100254.53;;;11.13;89.97
64967;BME280;51710;38.732;-121.358;2024-03-02T02:44:38;100241.56;;;11.10;90.17
64967;BME280;51710;38.732;-121.358;2024-03-02T02:47:05;100229.41;;;11.08;90.76
64967;BME280;51710;38.732;-121.358;2024-03-02T02:49:31;100219.41;;;11.10;91.23
64967;BME280;51710;38.732;-121.358;2024-03-02T02:51:57;100210.88;;;11.14;91.17
64967;BME280;51710;38.732;-121.358;2024-03-02T02:54:24;100216.69;;;11.18;90.83
64967;BME280;51710;38.732;-121.358;2024-03-02T02:56:50;100226.38;;;11.19;91.04
64967;BME280;51710;38.732;-121.358;2024-03-02T02:59:16;100233.53;;;11.18;90.75
64967;BME280;51710;38.732;-121.358;2024-03-02T03:01:43;100233.16;;;11.21;91.04
64967;BME280;51710;38.732;-121.358;2024-03-02T03:04:10;100230.50;;;11.21;91.00
64967;BME280;51710;38.732;-121.358;2024-03-02T03:06:36;100208.81;;;11.24;90.92
64967;BME280;51710;38.732;-121.358;2024-03-02T03:09:02;100211.50;;;11.24;90.42
64967;BME280;51710;38.732;-121.358;2024-03-02T03:11:29;100216.50;;;11.27;90.40
64967;BME280;51710;38.732;-121.358;2024-03-02T03:13:55;100207.47;;;11.28;90.28
64967;BME280;51710;38.732;-121.358;2024-03-02T03:16:22;100205.47;;;11.30;90.27
64967;BME280;51710;38.732;-121.358;2024-03-02T03:18:48;100207.13;;;11.31;89.91
64967;BME280;51710;38.732;-121.358;2024-03-02T03:21:17;100212.94;;;11.35;89.64
64967;BME280;51710;38.732;-121.358;2024-03-02T03:23:43;100215.47;;;11.37;89.49
64967;BME280;51710;38.732;-121.358;2024-03-02T03:26:09;100227.78;;;11.38;88.96
64967;BME280;51710;38.732;-121.358;2024-03-02T03:28:36;100232.25;;;11.37;88.38
64967;BME280;51710;38.732;-121.358;2024-03-02T03:31:02;100224.44;;;11.35;87.45
64967;BME280;51710;38.732;-121.358;2024-03-02T03:33:29;100221.94;;;11.34;87.08
64967;BME280;51710;38.732;-121.358;2024-03-02T03:35:55;100216.81;;;11.32;87.39
64967;BME280;51710;38.732;-121.358;2024-03-02T03:38:21;100203.84;;;11.29;87.40
64967;BME280;51710;38.732;-121.358;2024-03-02T03:40:48;100209.50;;;11.26;86.98
64967;BME280;51710;38.732;-121.358;2024-03-02T03:43:14;100209.50;;;11.26;87.33
64967;BME280;51710;38.732;-121.358;2024-03-02T03:45:40;100204.16;;;11.26;87.41
64967;BME280;51710;38.732;-121.358;2024-03-02T03:48:07;100199.31;;;11.30;87.51
64967;BME280;51710;38.732;-121.358;2024-03-02T03:50:33;100201.00;;;11.31;87.40
64967;BME280;51710;38.732;-121.358;2024-03-02T03:53:00;100179.66;;;11.31;87.42
64967;BME280;51710;38.732;-121.358;2024-03-02T03:55:26;100158.34;;;11.31;87.80
64967;BME280;51710;38.732;-121.358;2024-03-02T03:57:52;100163.66;;;11.31;87.61
64967;BME280;51710;38.732;-121.358;2024-03-02T04:00:19;100189.50;;;11.30;88.11
64967;BME280;51710;38.732;-121.358;2024-03-02T04:02:45;100184.84;;;11.24;88.42
64967;BME280;51710;38.732;-121.358;2024-03-02T04:05:11;100181.06;;;11.19;89.18
64967;BME280;51710;38.732;-121.358;2024-03-02T04:07:38;100179.78;;;11.07;89.84
64967;BME280;51710;38.732;-121.358;2024-03-02T04:10:09;100165.66;;;10.98;90.07
64967;BME280;51710;38.732;-121.358;2024-03-02T04:12:36;100163.69;;;10.92;90.76
64967;BME280;51710;38.732;-121.358;2024-03-02T04:15:07;100152.38;;;10.90;90.97
64967;BME280;51710;38.732;-121.358;2024-03-02T04:17:33;100144.25;;;10.84;91.02
64967;BME280;51710;38.732;-121.358;2024-03-02T04:20:01;100144.25;;;10.84;91.70
64967;BME280;51710;38.732;-121.358;2024-03-02T04:22:30;100170.41;;;10.80;91.86
64967;BME280;51710;38.732;-121.358;2024-03-02T04:24:56;100144.75;;;10.79;91.55
64967;BME280;51710;38.732;-121.358;2024-03-02T04:27:23;100153.75;;;10.78;92.22
64967;BME280;51710;38.732;-121.358;2024-03-02T04:29:49;100158.25;;;10.78;92.56
64967;BME280;51710;38.732;-121.358;2024-03-02T04:32:15;100152.44;;;10.74;92.97
64967;BME280;51710;38.732;-121.358;2024-03-02T04:34:41;100146.81;;;10.69;93.41
64967;BME280;51710;38.732;-121.358;2024-03-02T04:37:08;100152.63;;;10.73;94.08
64967;BME280;51710;38.732;-121.358;2024-03-02T04:39:38;100159.28;;;10.77;94.10
64967;BME280;51710;38.732;-121.358;2024-03-02T04:42:04;100151.94;;;10.79;94.52
64967;BME280;51710;38.732;-121.358;2024-03-02T04:44:30;100154.25;;;10.82;94.06
64967;BME280;51710;38.732;-121.358;2024-03-02T04:46:57;100146.75;;;10.85;93.87
64967;BME280;51710;38.732;-121.358;2024-03-02T04:49:23;100143.38;;;10.91;94.58
64967;BME280;51710;38.732;-121.358;2024-03-02T04:51:50;100140.03;;;10.97;94.27
64967;BME280;51710;38.732;-121.358;2024-03-02T04:54:17;100136.81;;;11.02;94.49
64967;BME280;51710;38.732;-121.358;2024-03-02T04:56:43;100147.34;;;11.03;94.56
64967;BME280;51710;38.732;-121.358;2024-03-02T04:59:19;100164.31;;;11.02;94.64
64967;BME280;51710;38.732;-121.358;2024-03-02T05:01:46;100184.66;;;10.95;95.57
64967;BME280;51710;38.732;-121.358;2024-03-02T05:04:13;100151.38;;;10.91;95.64
64967;BME280;51710;38.732;-121.358;2024-03-02T05:06:40;100159.72;;;10.88;96.57
64967;BME280;51710;38.732;-121.358;2024-03-02T05:09:07;100168.91;;;10.86;96.88
64967;BME280;51710;38.732;-121.358;2024-03-02T05:11:33;100155.75;;;10.84;97.13
64967;BME280;51710;38.732;-121.358;2024-03-02T05:14:06;100157.75;;;10.82;97.04
64967;BME280;51710;38.732;-121.358;2024-03-02T05:16:36;100143.41;;;10.83;97.08
64967;BME280;51710;38.732;-121.358;2024-03-02T05:19:06;100150.06;;;10.87;97.51
64967;BME280;51710;38.732;-121.358;2024-03-02T05:21:33;100151.72;;;10.88;97.55
64967;BME280;51710;38.732;-121.358;2024-03-02T05:23:59;100181.19;;;10.87;97.68
64967;BME280;51710;38.732;-121.358;2024-03-02T05:26:26;100196.50;;;10.85;97.48
64967;BME280;51710;38.732;-121.358;2024-03-02T05:28:52;100194.38;;;10.72;95.72
64967;BME280;51710;38.732;-121.358;2024-03-02T05:31:19;100193.34;;;10.27;94.46
64967;BME280;51710;38.732;-121.358;2024-03-02T05:33:45;100200.44;;;9.94;94.84
64967;BME280;51710;38.732;-121.358;2024-03-02T05:36:11;100185.16;;;9.64;94.97
64967;BME280;51710;38.732;-121.358;2024-03-02T05:38:38;100184.97;;;9.49;96.14
64967;BME280;51710;38.732;-121.358;2024-03-02T05:41:04;100178.63;;;9.42;96.85
64967;BME280;51710;38.732;-121.358;2024-03-02T05:43:31;100186.63;;;9.42;97.11
64967;BME280;51710;38.732;-121.358;2024-03-02T05:45:57;100177.97;;;9.40;97.17
64967;BME280;51710;38.732;-121.358;2024-03-02T05:48:23;100169.81;;;9.42;97.34
64967;BME280;51710;38.732;-121.358;2024-03-02T05:50:50;100183.44;;;9.47;97.01
64967;BME280;51710;38.732;-121.358;2024-03-02T05:53:16;100182.13;;;9.51;97.42
64967;BME280;51710;38.732;-121.358;2024-03-02T05:55:42;100178.16;;;9.55;97.55
64967;BME280;51710;38.732;-121.358;2024-03-02T05:58:09;100172.50;;;9.58;97.74
64967;BME280;51710;38.732;-121.358;2024-03-02T06:00:38;100169.38;;;9.62;97.87
64967;BME280;51710;38.732;-121.358;2024-03-02T06:03:05;100165.22;;;9.68;97.63
64967;BME280;51710;38.732;-121.358;2024-03-02T06:05:31;100171.53;;;9.75;97.99
64967;BME280;51710;38.732;-121.358;2024-03-02T06:07:58;100172.53;;;9.82;98.12
64967;BME280;51710;38.732;-121.358;2024-03-02T06:10:24;100168.22;;;9.89;98.30
64967;BME280;51710;38.732;-121.358;2024-03-02T06:12:51;100161.91;;;9.98;98.06
64967;BME280;51710;38.732;-121.358;2024-03-02T06:15:17;100161.06;;;10.05;98.72
64967;BME280;51710;38.732;-121.358;2024-03-02T06:17:44;100160.25;;;10.13;98.28
64967;BME280;51710;38.732;-121.358;2024-03-02T06:20:11;100165.56;;;10.21;98.19
64967;BME280;51710;38.732;-121.358;2024-03-02T06:22:37;100160.56;;;10.26;98.24
64967;BME280;51710;38.732;-121.358;2024-03-02T06:25:04;100174.50;;;10.36;98.08
64967;BME280;51710;38.732;-121.358;2024-03-02T06:27:30;100171.19;;;10.42;98.71
64967;BME280;51710;38.732;-121.358;2024-03-02T06:29:56;100172.97;;;10.50;98.83
64967;BME280;51710;38.732;-121.358;2024-03-02T06:32:23;100171.66;;;10.54;98.16
64967;BME280;51710;38.732;-121.358;2024-03-02T06:34:50;100183.81;;;10.56;98.44
64967;BME280;51710;38.732;-121.358;2024-03-02T06:37:17;100174.13;;;10.55;98.75
64967;BME280;51710;38.732;-121.358;2024-03-02T06:39:43;100172.50;;;10.54;98.44
64967;BME280;51710;38.732;-121.358;2024-03-02T06:42:10;100173.81;;;10.50;98.67
64967;BME280;51710;38.732;-121.358;2024-03-02T06:44:36;100150.56;;;10.44;97.50
64967;BME280;51710;38.732;-121.358;2024-03-02T06:47:02;100162.19;;;10.43;97.10
64967;BME280;51710;38.732;-121.358;2024-03-02T06:49:29;100156.53;;;10.46;97.23
64967;BME280;51710;38.732;-121.358;2024-03-02T06:51:56;100166.84;;;10.49;97.23
64967;BME280;51710;38.732;-121.358;2024-03-02T06:54:22;100161.19;;;10.52;96.66
64967;BME280;51710;38.732;-121.358;2024-03-02T06:56:48;100171.81;;;10.52;96.47
64967;BME280;51710;38.732;-121.358;2024-03-02T06:59:15;100178.78;;;10.53;96.09
64967;BME280;51710;38.732;-121.358;2024-03-02T07:01:41;100190.81;;;10.49;96.33
64967;BME280;51710;38.732;-121.358;2024-03-02T07:04:09;100188.94;;;10.50;96.30
64967;BME280;51710;38.732;-121.358;2024-03-02T07:06:35;100199.94;;;10.47;95.73
64967;BME280;51710;38.732;-121.358;2024-03-02T07:09:01;100206.47;;;10.44;94.50
64967;BME280;51710;38.732;-121.358;2024-03-02T07:11:28;100205.97;;;10.41;94.26
64967;BME280;51710;38.732;-121.358;2024-03-02T07:13:54;100197.31;;;10.39;93.77
64967;BME280;51710;38.732;-121.358;2024-03-02T07:16:21;100161.69;;;10.40;93.84
64967;BME280;51710;38.732;-121.358;2024-03-02T07:18:58;100179.50;;;10.39;93.57
64967;BME280;51710;38.732;-121.358;2024-03-02T07:21:27;100187.81;;;10.36;93.28
64967;BME280;51710;38.732;-121.358;2024-03-02T07:23:54;100191.81;;;10.32;93.51
64967;BME280;51710;38.732;-121.358;2024-03-02T07:26:20;100193.84;;;10.30;93.00
64967;BME280;51710;38.732;-121.358;2024-03-02T07:28:47;100193.00;;;10.30;93.39
64967;BME280;51710;38.732;-121.358;2024-03-02T07:31:16;100204.78;;;10.27;93.96
64967;BME280;51710;38.732;-121.358;2024-03-02T07:33:46;100201.16;;;10.28;94.03
64967;BME280;51710;38.732;-121.358;2024-03-02T07:36:12;100202.81;;;10.29;93.75
64967;BME280;51710;38.732;-121.358;2024-03-02T07:38:39;100194.66;;;10.31;93.83
64967;BME280;51710;38.732;-121.358;2024-03-02T07:41:07;100197.13;;;10.32;93.86
64967;BME280;51710;38.732;-121.358;2024-03-02T07:43:33;100198.81;;;10.33;94.00
64967;BME280;51710;38.732;-121.358;2024-03-02T07:46:00;100209.13;;;10.36;93.59
64967;BME280;51710;38.732;-121.358;2024-03-02T07:48:26;100201.78;;;10.38;93.54
64967;BME280;51710;38.732;-121.358;2024-03-02T07:50:53;100198.28;;;10.38;93.79
64967;BME280;51710;38.732;-121.358;2024-03-02T07:53:19;100196.47;;;10.38;93.56
64967;BME280;51710;38.732;-121.358;2024-03-02T07:55:46;100192.81;;;10.39;93.75
64967;BME280;51710;38.732;-121.358;2024-03-02T07:58:12;100189.31;;;10.39;93.88
64967;BME280;51710;38.732;-121.358;2024-03-02T08:00:39;100189.16;;;10.40;94.00
64967;BME280;51710;38.732;-121.358;2024-03-02T08:03:06;100178.19;;;10.35;94.05
64967;BME280;51710;38.732;-121.358;2024-03-02T08:05:33;100184.19;;;10.37;94.05
64967;BME280;51710;38.732;-121.358;2024-03-02T08:07:59;100202.81;;;10.37;93.99
64967;BME280;51710;38.732;-121.358;2024-03-02T08:10:26;100211.78;;;10.36;93.38
64967;BME280;51710;38.732;-121.358;2024-03-02T08:12:52;100205.78;;;10.34;93.91
64967;BME280;51710;38.732;-121.358;2024-03-02T08:15:18;100202.81;;;10.29;93.74
64967;BME280;51710;38.732;-121.358;2024-03-02T08:17:45;100210.13;;;10.27;93.98
64967;BME280;51710;38.732;-121.358;2024-03-02T08:20:14;100206.81;;;10.25;94.24
64967;BME280;51710;38.732;-121.358;2024-03-02T08:22:40;100217.78;;;10.22;93.90
64967;BME280;51710;38.732;-121.358;2024-03-02T08:25:07;100213.81;;;10.18;93.58
64967;BME280;51710;38.732;-121.358;2024-03-02T08:27:34;100225.44;;;10.17;94.18
64967;BME280;51710;38.732;-121.358;2024-03-02T08:30:00;100223.78;;;10.16;93.94
64967;BME280;51710;38.732;-121.358;2024-03-02T08:32:27;100209.81;;;10.14;94.12
64967;BME280;51710;38.732;-121.358;2024-03-02T08:34:53;100200.81;;;10.15;93.89
64967;BME280;51710;38.732;-121.358;2024-03-02T08:37:19;100194.50;;;10.16;93.67
64967;BME280;51710;38.732;-121.358;2024-03-02T08:39:46;100208.78;;;10.15;93.89
64967;BME280;51710;38.732;-121.358;2024-03-02T08:42:12;100206.13;;;10.15;93.96
64967;BME280;51710;38.732;-121.358;2024-03-02T08:44:38;100211.28;;;10.16;93.98
64967;BME280;51710;38.732;-121.358;2024-03-02T08:47:05;100209.47;;;10.17;93.50
64967;BME280;51710;38.732;-121.358;2024-03-02T08:49:31;100208.50;;;10.18;93.49
64967;BME280;51710;38.732;-121.358;2024-03-02T08:51:57;100209.28;;;10.18;93.25
64967;BME280;51710;38.732;-121.358;2024-03-02T08:54:23;100214.44;;;10.20;93.01
64967;BME280;51710;38.732;-121.358;2024-03-02T08:56:50;100214.44;;;10.20;92.44
64967;BME280;51710;38.732;-121.358;2024-03-02T08:59:16;100216.13;;;10.21;92.31
64967;BME280;51710;38.732;-121.358;2024-03-02T09:01:43;100215.13;;;10.22;92.24
64967;BME280;51710;38.732;-121.358;2024-03-02T09:04:10;100207.97;;;10.23;92.03
64967;BME280;51710;38.732;-121.358;2024-03-02T09:06:37;100208.47;;;10.26;92.28
64967;BME280;51710;38.732;-121.358;2024-03-02T09:09:03;100217.97;;;10.29;92.08
64967;BME280;51710;38.732;-121.358;2024-03-02T09:11:31;100232.06;;;10.29;91.99
64967;BME280;51710;38.732;-121.358;2024-03-02T09:13:58;100231.91;;;10.31;91.98
64967;BME280;51710;38.732;-121.358;2024-03-02T09:16:24;100245.88;;;10.33;91.36
64967;BME280;51710;38.732;-121.358;2024-03-02T09:18:56;100234.25;;;10.34;91.59
64967;BME280;51710;38.732;-121.358;2024-03-02T09:21:23;100231.59;;;10.34;91.51
64967;BME280;51710;38.732;-121.358;2024-03-02T09:23:51;100229.06;;;10.32;90.70
64967;BME280;51710;38.732;-121.358;2024-03-02T09:26:17;100228.59;;;10.29;90.89
64967;BME280;51710;38.732;-121.358;2024-03-02T09:28:45;100230.91;;;10.23;90.57
64967;BME280;51710;38.732;-121.358;2024-03-02T09:31:11;100233.59;;;10.15;89.27
64967;BME280;51710;38.732;-121.358;2024-03-02T09:33:38;100242.34;;;10.08;88.48
64967;BME280;51710;38.732;-121.358;2024-03-02T09:36:20;100237.91;;;10.08;88.75
64967;BME280;51710;38.732;-121.358;2024-03-02T09:38:46;100265.34;;;10.09;88.18
64967;BME280;51710;38.732;-121.358;2024-03-02T09:41:14;100288.59;;;10.07;87.05
64967;BME280;51710;38.732;-121.358;2024-03-02T09:43:41;100286.34;;;9.62;85.43
64967;BME280;51710;38.732;-121.358;2024-03-02T09:46:10;100287.94;;;9.13;86.41
64967;BME280;51710;38.732;-121.358;2024-03-02T09:48:37;100258.25;;;8.84;87.27
64967;BME280;51710;38.732;-121.358;2024-03-02T09:51:05;100256.88;;;8.72;87.83
64967;BME280;51710;38.732;-121.358;2024-03-02T09:53:32;100267.75;;;8.61;87.95
64967;BME280;51710;38.732;-121.358;2024-03-02T09:56:02;100235.84;;;8.53;88.87
64967;BME280;51710;38.732;-121.358;2024-03-02T09:58:28;100215.25;;;8.47;89.26
64967;BME280;51710;38.732;-121.358;2024-03-02T10:00:55;100218.06;;;8.46;89.11
64967;BME280;51710;38.732;-121.358;2024-03-02T10:03:25;100227.34;;;8.42;88.82
64967;BME280;51710;38.732;-121.358;2024-03-02T10:05:52;100225.81;;;8.39;88.89
64967;BME280;51710;38.732;-121.358;2024-03-02T10:08:19;100229.47;;;8.38;89.31
64967;BME280;51710;38.732;-121.358;2024-03-02T10:10:45;100233.78;;;8.39;89.32
64967;BME280;51710;38.732;-121.358;2024-03-02T10:13:13;100226.50;;;8.41;89.55
64967;BME280;51710;38.732;-121.358;2024-03-02T10:15:41;100227.16;;;8.43;89.97
64967;BME280;51710;38.732;-121.358;2024-03-02T10:18:11;100219.06;;;8.45;90.12
64967;BME280;51710;38.732;-121.358;2024-03-02T10:20:39;100225.56;;;8.50;89.42
64967;BME280;51710;38.732;-121.358;2024-03-02T10:23:13;100224.91;;;8.56;89.98
64967;BME280;51710;38.732;-121.358;2024-03-02T10:25:40;100240.22;;;8.62;89.92
64967;BME280;51710;38.732;-121.358;2024-03-02T10:28:07;100253.84;;;8.67;90.35
64967;BME280;51710;38.732;-121.358;2024-03-02T10:30:34;100247.94;;;8.73;90.03
64967;BME280;51710;38.732;-121.358;2024-03-02T10:33:05;100250.94;;;8.78;89.50
64967;BME280;51710;38.732;-121.358;2024-03-02T10:35:32;100253.97;;;8.83;89.48
64967;BME280;51710;38.732;-121.358;2024-03-02T10:38:04;100258.94;;;8.86;89.52
64967;BME280;51710;38.732;-121.358;2024-03-02T10:40:32;100247.47;;;8.86;89.05
64967;BME280;51710;38.732;-121.358;2024-03-02T10:42:59;100253.31;;;8.89;88.71
64967;BME280;51710;38.732;-121.358;2024-03-02T10:45:29;100244.38;;;8.90;88.72
64967;BME280;51710;38.732;-121.358;2024-03-02T10:47:56;100246.34;;;8.88;87.90
64967;BME280;51710;38.732;-121.358;2024-03-02T10:50:24;100235.72;;;8.88;87.08
64967;BME280;51710;38.732;-121.358;2024-03-02T10:52:50;100223.31;;;8.89;86.66
64967;BME280;51710;38.732;-121.358;2024-03-02T10:55:17;100210.84;;;8.89;87.23
64967;BME280;51710;38.732;-121.358;2024-03-02T10:57:50;100209.69;;;8.92;86.86
64967;BME280;51710;38.732;-121.358;2024-03-02T11:00:18;100237.72;;;8.94;86.70
64967;BME280;51710;38.732;-121.358;2024-03-02T11:02:58;100229.78;;;8.94;86.64
64967;BME280;51710;38.732;-121.358;2024-03-02T11:05:33;100197.59;;;8.97;87.18
64967;BME280;51710;38.732;-121.358;2024-03-02T11:08:07;100203.28;;;9.02;87.45
64967;BME280;51710;38.732;-121.358;2024-03-02T11:10:41;100217.91;;;9.06;87.67
64967;BME280;51710;38.732;-121.358;2024-03-02T11:13:12;100223.84;;;9.08;87.18
64967;BME280;51710;38.732;-121.358;2024-03-02T11:15:40;100230.84;;;9.09;87.38
64967;BME280;51710;38.732;-121.358;2024-03-02T11:18:09;100228.03;;;9.11;87.14
64967;BME280;51710;38.732;-121.358;2024-03-02T11:20:38;100225.03;;;9.14;87.42
64967;BME280;51710;38.732;-121.358;2024-03-02T11:23:09;100247.81;;;9.17;87.63
64967;BME280;51710;38.732;-121.358;2024-03-02T11:25:36;100252.78;;;9.20;87.53
64967;BME280;51710;38.732;-121.358;2024-03-02T11:28:04;100242.00;;;9.21;88.03
64967;BME280;51710;38.732;-121.358;2024-03-02T11:33:07;100250.13;;;9.12;87.39
64967;BME280;51710;38.732;-121.358;2024-03-02T11:35:37;100244.75;;;9.03;87.62
64967;BME280;51710;38.732;-121.358;2024-03-02T11:38:04;100241.75;;;8.98;87.97
64967;BME280;51710;38.732;-121.358;2024-03-02T11:40:32;100239.75;;;8.92;87.53
64967;BME280;51710;38.732;-121.358;2024-03-02T11:43:02;100253.47;;;8.88;87.80
64967;BME280;51710;38.732;-121.358;2024-03-02T11:45:30;100255.09;;;8.81;87.88
64967;BME280;51710;38.732;-121.358;2024-03-02T11:47:59;100262.03;;;8.74;87.41
64967;BME280;51710;38.732;-121.358;2024-03-02T11:50:39;100264.16;;;8.70;86.93
64967;BME280;51710;38.732;-121.358;2024-03-02T11:53:08;100256.50;;;8.67;87.08
64967;BME280;51710;38.732;-121.358;2024-03-02T11:55:36;100269.31;;;8.72;87.09
64967;BME280;51710;38.732;-121.358;2024-03-02T11:58:04;100269.19;;;8.73;87.23
64967;BME280;51710;38.732;-121.358;2024-03-02T12:00:30;100276.13;;;8.74;86.78
64967;BME280;51710;38.732;-121.358;2024-03-02T12:03:07;100292.06;;;8.74;86.69
64967;BME280;51710;38.732;-121.358;2024-03-02T12:05:35;100305.50;;;8.73;86.22
64967;BME280;51710;38.732;-121.358;2024-03-02T12:08:05;100312.94;;;8.69;85.71
64967;BME280;51710;38.732;-121.358;2024-03-02T12:10:36;100339.09;;;8.64;85.57
64967;BME280;51710;38.732;-121.358;2024-03-02T12:13:04;100345.03;;;8.58;84.54
64967;BME280;51710;38.732;-121.358;2024-03-02T12:15:33;100340.09;;;8.46;82.92
64967;BME280;51710;38.732;-121.358;2024-03-02T12:18:01;100341.41;;;8.24;81.52
64967;BME280;51710;38.732;-121.358;2024-03-02T12:20:29;100350.81;;;8.09;82.04
64967;BME280;51710;38.732;-121.358;2024-03-02T12:22:58;100352.03;;;7.97;82.27
64967;BME280;51710;38.732;-121.358;2024-03-02T12:25:25;100336.91;;;7.89;82.82
64967;BME280;51710;38.732;-121.358;2024-03-02T12:27:54;100340.66;;;7.87;83.60
64967;BME280;51710;38.732;-121.358;2024-03-02T12:30:21;100339.41;;;7.91;83.64